sensor_id;sensor_type;location;lat;lon;timestamp;P1;durP1;ratioP1;P2;durP2;ratioP2
74777;SDS011;63298;53.164;8.610;2023-03-04T00:02:09;11.55;;;1.88;;
74777;SDS011;63298;53.164;8.610;2023-03-04T00:04:34;14.27;;;1.67;;
74777;SDS011;63298;53.164;8.610;2023-03-04T00:07:00;19.95;;;2.47;;
74777;SDS011;63298;53.164;8.610;2023-03-04T00:09:25;22.65;;;2.08;;
74777;SDS011;63298;53.164;8.610;2023-03-04T00:11:50;16.40;;;1.88;;
74777;SDS011;63298;53.164;8.610;2023-03-04T00:14:16;13.50;;;1.98;;
74777;SDS011;63298;53.164;8.610;2023-03-04T00:16:41;11.55;;;1.55;;
74777;SDS011;63298;53.164;8.610;2023-03-04T00:19:06;12.40;;;1.55;;
74777;SDS011;63298;53.164;8.610;2023-03-04T00:21:32;16.48;;;2.30;;
74777;SDS011;63298;53.164;8.610;2023-03-04T00:23:57;10.05;;;1.63;;
74777;SDS011;63298;53.164;8.610;2023-03-04T00:26:22;10.88;;;1.73;;
74777;SDS011;63298;53.164;8.610;2023-03-04T00:28:48;13.05;;;1.95;;
74777;SDS011;63298;53.164;8.610;2023-03-04T00:31:13;17.45;;;1.80;;
74777;SDS011;63298;53.164;8.610;2023-03-04T00:33:39;11.13;;;1.30;;
74777;SDS011;63298;53.164;8.610;2023-03-04T00:36:04;8.45;;;1.65;;
74777;SDS011;63298;53.164;8.610;2023-03-04T00:38:29;15.15;;;1.80;;
74777;SDS011;63298;53.164;8.610;2023-03-04T00:40:55;9.32;;;1.38;;
74777;SDS011;63298;53.164;8.610;2023-03-04T00:43:21;13.35;;;1.95;;
74777;SDS011;63298;53.164;8.610;2023-03-04T00:45:46;15.18;;;1.95;;
74777;SDS011;63298;53.164;8.610;2023-03-04T00:48:11;15.65;;;1.50;;
74777;SDS011;63298;53.164;8.610;2023-03-04T00:50:37;20.67;;;2.20;;
74777;SDS011;63298;53.164;8.610;2023-03-04T00:53:02;8.82;;;1.58;;
74777;SDS011;63298;53.164;8.610;2023-03-04T00:55:28;15.77;;;2.35;;
74777;SDS011;63298;53.164;8.610;2023-03-04T00:57:53;11.15;;;2.05;;
74777;SDS011;63298;53.164;8.610;2023-03-04T01:00:20;10.10;;;2.30;;
74777;SDS011;63298;53.164;8.610;2023-03-04T01:02:46;15.32;;;2.03;;
74777;SDS011;63298;53.164;8.610;2023-03-04T01:05:11;22.38;;;2.63;;
74777;SDS011;63298;53.164;8.610;2023-03-04T01:07:37;17.70;;;2.70;;
74777;SDS011;63298;53.164;8.610;2023-03-04T01:10:03;16.55;;;1.95;;
74777;SDS011;63298;53.164;8.610;2023-03-04T01:12:29;12.43;;;1.70;;
74777;SDS011;63298;53.164;8.610;2023-03-04T01:14:54;8.85;;;1.95;;
74777;SDS011;63298;53.164;8.610;2023-03-04T01:17:20;11.70;;;1.85;;
74777;SDS011;63298;53.164;8.610;2023-03-04T01:19:45;10.18;;;1.33;;
74777;SDS011;63298;53.164;8.610;2023-03-04T01:22:10;11.05;;;1.88;;
74777;SDS011;63298;53.164;8.610;2023-03-04T01:24:36;13.40;;;2.15;;
74777;SDS011;63298;53.164;8.610;2023-03-04T01:27:01;17.90;;;2.65;;
74777;SDS011;63298;53.164;8.610;2023-03-04T01:29:27;9.55;;;1.90;;
74777;SDS011;63298;53.164;8.610;2023-03-04T01:31:52;13.27;;;1.70;;
74777;SDS011;63298;53.164;8.610;2023-03-04T01:34:17;22.10;;;2.13;;
74777;SDS011;63298;53.164;8.610;2023-03-04T01:36:43;12.02;;;1.42;;
74777;SDS011;63298;53.164;8.610;2023-03-04T01:39:08;13.05;;;1.45;;
74777;SDS011;63298;53.164;8.610;2023-03-04T01:41:35;4.18;;;0.88;;
74777;SDS011;63298;53.164;8.610;2023-03-04T01:44:00;10.63;;;1.42;;
74777;SDS011;63298;53.164;8.610;2023-03-04T01:46:26;9.02;;;1.13;;
74777;SDS011;63298;53.164;8.610;2023-03-04T01:48:53;13.27;;;1.58;;
74777;SDS011;63298;53.164;8.610;2023-03-04T01:51:19;5.93;;;1.10;;
74777;SDS011;63298;53.164;8.610;2023-03-04T01:53:46;12.13;;;1.20;;
74777;SDS011;63298;53.164;8.610;2023-03-04T01:56:15;11.23;;;1.17;;
74777;SDS011;63298;53.164;8.610;2023-03-04T01:59:04;11.32;;;1.15;;
74777;SDS011;63298;53.164;8.610;2023-03-04T02:01:31;9.98;;;1.52;;
74777;SDS011;63298;53.164;8.610;2023-03-04T02:03:57;7.00;;;1.40;;
74777;SDS011;63298;53.164;8.610;2023-03-04T02:06:23;12.95;;;1.80;;
74777;SDS011;63298;53.164;8.610;2023-03-04T02:08:48;10.50;;;1.73;;
74777;SDS011;63298;53.164;8.610;2023-03-04T02:11:14;12.02;;;1.65;;
74777;SDS011;63298;53.164;8.610;2023-03-04T02:13:41;14.70;;;2.42;;
74777;SDS011;63298;53.164;8.610;2023-03-04T02:16:06;8.60;;;1.42;;
74777;SDS011;63298;53.164;8.610;2023-03-04T02:18:35;9.45;;;1.73;;
74777;SDS011;63298;53.164;8.610;2023-03-04T02:26:35;18.27;;;2.28;;
74777;SDS011;63298;53.164;8.610;2023-03-04T02:29:01;15.65;;;2.28;;
74777;SDS011;63298;53.164;8.610;2023-03-04T02:31:35;10.73;;;1.38;;
74777;SDS011;63298;53.164;8.610;2023-03-04T02:34:20;6.07;;;1.17;;
74777;SDS011;63298;53.164;8.610;2023-03-04T02:36:50;7.20;;;2.33;;
74777;SDS011;63298;53.164;8.610;2023-03-04T02:41:57;9.18;;;1.77;;
74777;SDS011;63298;53.164;8.610;2023-03-04T02:46:50;19.90;;;2.17;;
74777;SDS011;63298;53.164;8.610;2023-03-04T02:49:17;10.27;;;1.35;;
74777;SDS011;63298;53.164;8.610;2023-03-04T02:51:43;12.70;;;1.88;;
74777;SDS011;63298;53.164;8.610;2023-03-04T02:54:15;5.40;;;1.00;;
74777;SDS011;63298;53.164;8.610;2023-03-04T02:56:46;8.23;;;1.40;;
74777;SDS011;63298;53.164;8.610;2023-03-04T02:59:13;11.48;;;0.88;;
74777;SDS011;63298;53.164;8.610;2023-03-04T03:01:38;17.83;;;1.88;;
74777;SDS011;63298;53.164;8.610;2023-03-04T03:04:27;7.40;;;1.33;;
74777;SDS011;63298;53.164;8.610;2023-03-04T03:06:53;8.65;;;1.30;;
74777;SDS011;63298;53.164;8.610;2023-03-04T03:09:19;13.05;;;1.65;;
74777;SDS011;63298;53.164;8.610;2023-03-04T03:11:45;7.82;;;1.20;;
74777;SDS011;63298;53.164;8.610;2023-03-04T03:14:10;7.28;;;0.98;;
74777;SDS011;63298;53.164;8.610;2023-03-04T03:16:36;9.85;;;2.03;;
74777;SDS011;63298;53.164;8.610;2023-03-04T03:19:01;7.63;;;1.10;;
74777;SDS011;63298;53.164;8.610;2023-03-04T03:21:29;14.05;;;2.08;;
74777;SDS011;63298;53.164;8.610;2023-03-04T03:23:55;10.18;;;1.33;;
74777;SDS011;63298;53.164;8.610;2023-03-04T03:26:20;12.77;;;1.30;;
74777;SDS011;63298;53.164;8.610;2023-03-04T03:28:45;9.25;;;1.65;;
74777;SDS011;63298;53.164;8.610;2023-03-04T03:31:11;11.45;;;1.20;;
74777;SDS011;63298;53.164;8.610;2023-03-04T03:33:37;10.50;;;1.40;;
74777;SDS011;63298;53.164;8.610;2023-03-04T03:36:03;8.50;;;1.13;;
74777;SDS011;63298;53.164;8.610;2023-03-04T03:38:28;12.65;;;1.20;;
74777;SDS011;63298;53.164;8.610;2023-03-04T03:40:54;8.70;;;1.60;;
74777;SDS011;63298;53.164;8.610;2023-03-04T03:43:19;7.13;;;1.33;;
74777;SDS011;63298;53.164;8.610;2023-03-04T03:45:45;13.55;;;1.50;;
74777;SDS011;63298;53.164;8.610;2023-03-04T03:48:10;6.00;;;1.08;;
74777;SDS011;63298;53.164;8.610;2023-03-04T03:50:36;9.30;;;1.00;;
74777;SDS011;63298;53.164;8.610;2023-03-04T03:53:01;6.85;;;0.98;;
74777;SDS011;63298;53.164;8.610;2023-03-04T03:55:33;5.30;;;1.20;;
74777;SDS011;63298;53.164;8.610;2023-03-04T03:58:01;12.98;;;2.17;;
74777;SDS011;63298;53.164;8.610;2023-03-04T04:00:27;10.10;;;1.13;;
74777;SDS011;63298;53.164;8.610;2023-03-04T04:02:53;8.00;;;0.90;;
74777;SDS011;63298;53.164;8.610;2023-03-04T04:05:20;9.30;;;0.98;;
74777;SDS011;63298;53.164;8.610;2023-03-04T04:07:45;12.00;;;1.42;;
74777;SDS011;63298;53.164;8.610;2023-03-04T04:10:11;5.38;;;1.00;;
74777;SDS011;63298;53.164;8.610;2023-03-04T04:12:36;7.88;;;0.90;;
74777;SDS011;63298;53.164;8.610;2023-03-04T04:15:02;6.38;;;0.85;;
74777;SDS011;63298;53.164;8.610;2023-03-04T04:17:32;10.70;;;1.00;;
74777;SDS011;63298;53.164;8.610;2023-03-04T04:19:58;5.95;;;1.10;;
74777;SDS011;63298;53.164;8.610;2023-03-04T04:22:23;9.57;;;1.00;;
74777;SDS011;63298;53.164;8.610;2023-03-04T04:24:49;6.70;;;0.93;;
74777;SDS011;63298;53.164;8.610;2023-03-04T04:27:14;7.03;;;1.00;;
74777;SDS011;63298;53.164;8.610;2023-03-04T04:29:40;6.80;;;1.42;;
74777;SDS011;63298;53.164;8.610;2023-03-04T04:32:06;11.05;;;1.27;;
74777;SDS011;63298;53.164;8.610;2023-03-04T04:34:32;5.68;;;1.00;;
74777;SDS011;63298;53.164;8.610;2023-03-04T04:36:57;6.50;;;1.13;;
74777;SDS011;63298;53.164;8.610;2023-03-04T04:39:22;4.07;;;0.70;;
74777;SDS011;63298;53.164;8.610;2023-03-04T04:41:48;11.55;;;0.90;;
74777;SDS011;63298;53.164;8.610;2023-03-04T04:44:13;13.88;;;1.10;;
74777;SDS011;63298;53.164;8.610;2023-03-04T04:46:39;3.63;;;0.70;;
74777;SDS011;63298;53.164;8.610;2023-03-04T04:49:05;8.80;;;1.05;;
74777;SDS011;63298;53.164;8.610;2023-03-04T04:51:31;6.85;;;0.93;;
74777;SDS011;63298;53.164;8.610;2023-03-04T04:53:59;9.88;;;0.90;;
74777;SDS011;63298;53.164;8.610;2023-03-04T04:56:25;6.57;;;1.27;;
74777;SDS011;63298;53.164;8.610;2023-03-04T04:58:51;8.75;;;1.23;;
74777;SDS011;63298;53.164;8.610;2023-03-04T05:01:21;7.70;;;1.25;;
74777;SDS011;63298;53.164;8.610;2023-03-04T05:03:47;7.10;;;0.80;;
74777;SDS011;63298;53.164;8.610;2023-03-04T05:06:15;7.15;;;1.17;;
74777;SDS011;63298;53.164;8.610;2023-03-04T05:08:41;4.43;;;0.90;;
74777;SDS011;63298;53.164;8.610;2023-03-04T05:11:06;7.43;;;0.93;;
74777;SDS011;63298;53.164;8.610;2023-03-04T05:13:32;8.43;;;0.98;;
74777;SDS011;63298;53.164;8.610;2023-03-04T05:15:58;6.43;;;1.40;;
74777;SDS011;63298;53.164;8.610;2023-03-04T05:18:24;4.63;;;0.60;;
74777;SDS011;63298;53.164;8.610;2023-03-04T05:20:51;9.65;;;1.00;;
74777;SDS011;63298;53.164;8.610;2023-03-04T05:23:17;9.52;;;1.25;;
74777;SDS011;63298;53.164;8.610;2023-03-04T05:25:43;5.90;;;1.23;;
74777;SDS011;63298;53.164;8.610;2023-03-04T05:28:08;7.35;;;1.10;;
74777;SDS011;63298;53.164;8.610;2023-03-04T05:30:33;7.30;;;1.02;;
74777;SDS011;63298;53.164;8.610;2023-03-04T05:32:59;11.55;;;1.20;;
74777;SDS011;63298;53.164;8.610;2023-03-04T05:35:24;4.88;;;1.13;;
74777;SDS011;63298;53.164;8.610;2023-03-04T05:37:50;8.20;;;1.73;;
74777;SDS011;63298;53.164;8.610;2023-03-04T05:40:15;6.57;;;1.10;;
74777;SDS011;63298;53.164;8.610;2023-03-04T05:42:40;7.38;;;1.13;;
74777;SDS011;63298;53.164;8.610;2023-03-04T05:45:06;7.20;;;1.27;;
74777;SDS011;63298;53.164;8.610;2023-03-04T05:47:32;5.32;;;1.08;;
74777;SDS011;63298;53.164;8.610;2023-03-04T05:49:57;6.30;;;1.00;;
74777;SDS011;63298;53.164;8.610;2023-03-04T05:52:22;7.47;;;1.47;;
74777;SDS011;63298;53.164;8.610;2023-03-04T05:58:09;1.38;;;0.70;;
74777;SDS011;63298;53.164;8.610;2023-03-04T06:00:35;2.72;;;0.93;;
74777;SDS011;63298;53.164;8.610;2023-03-04T06:03:00;5.50;;;1.02;;
74777;SDS011;63298;53.164;8.610;2023-03-04T06:05:25;8.90;;;1.35;;
74777;SDS011;63298;53.164;8.610;2023-03-04T06:07:50;2.92;;;1.00;;
74777;SDS011;63298;53.164;8.610;2023-03-04T06:10:16;7.87;;;1.17;;
74777;SDS011;63298;53.164;8.610;2023-03-04T06:12:42;7.35;;;0.93;;
74777;SDS011;63298;53.164;8.610;2023-03-04T06:15:08;8.90;;;1.25;;
74777;SDS011;63298;53.164;8.610;2023-03-04T06:17:33;4.82;;;1.30;;
74777;SDS011;63298;53.164;8.610;2023-03-04T06:19:59;8.38;;;1.70;;
74777;SDS011;63298;53.164;8.610;2023-03-04T06:22:24;6.75;;;2.10;;
74777;SDS011;63298;53.164;8.610;2023-03-04T06:24:49;5.55;;;1.48;;
74777;SDS011;63298;53.164;8.610;2023-03-04T06:27:15;6.13;;;1.60;;
74777;SDS011;63298;53.164;8.610;2023-03-04T06:29:40;7.82;;;1.92;;
74777;SDS011;63298;53.164;8.610;2023-03-04T06:32:05;9.83;;;2.67;;
74777;SDS011;63298;53.164;8.610;2023-03-04T06:34:31;9.73;;;2.55;;
74777;SDS011;63298;53.164;8.610;2023-03-04T06:36:59;9.47;;;2.93;;
74777;SDS011;63298;53.164;8.610;2023-03-04T06:39:24;7.95;;;3.10;;
74777;SDS011;63298;53.164;8.610;2023-03-04T06:41:50;13.15;;;3.30;;
74777;SDS011;63298;53.164;8.610;2023-03-04T06:44:15;4.75;;;1.67;;
74777;SDS011;63298;53.164;8.610;2023-03-04T06:46:41;5.88;;;1.40;;
74777;SDS011;63298;53.164;8.610;2023-03-04T06:49:06;6.20;;;1.15;;
74777;SDS011;63298;53.164;8.610;2023-03-04T06:51:32;7.95;;;0.93;;
74777;SDS011;63298;53.164;8.610;2023-03-04T06:57:19;10.50;;;1.30;;
74777;SDS011;63298;53.164;8.610;2023-03-04T06:59:44;4.40;;;0.95;;
74777;SDS011;63298;53.164;8.610;2023-03-04T07:02:12;14.10;;;1.63;;
74777;SDS011;63298;53.164;8.610;2023-03-04T07:04:38;10.63;;;1.60;;
74777;SDS011;63298;53.164;8.610;2023-03-04T07:07:04;7.55;;;1.10;;
74777;SDS011;63298;53.164;8.610;2023-03-04T07:09:30;5.80;;;1.48;;
74777;SDS011;63298;53.164;8.610;2023-03-04T07:11:55;10.57;;;1.40;;
74777;SDS011;63298;53.164;8.610;2023-03-04T07:14:20;7.40;;;1.10;;
74777;SDS011;63298;53.164;8.610;2023-03-04T07:16:46;9.23;;;1.35;;
74777;SDS011;63298;53.164;8.610;2023-03-04T07:19:11;12.60;;;1.60;;
74777;SDS011;63298;53.164;8.610;2023-03-04T07:21:36;9.40;;;1.60;;
74777;SDS011;63298;53.164;8.610;2023-03-04T07:24:02;8.70;;;1.52;;
74777;SDS011;63298;53.164;8.610;2023-03-04T07:26:27;17.13;;;1.70;;
74777;SDS011;63298;53.164;8.610;2023-03-04T07:28:53;6.78;;;1.40;;
74777;SDS011;63298;53.164;8.610;2023-03-04T07:33:43;12.20;;;1.70;;
74777;SDS011;63298;53.164;8.610;2023-03-04T07:36:09;14.43;;;2.10;;
74777;SDS011;63298;53.164;8.610;2023-03-04T07:38:34;16.42;;;2.03;;
74777;SDS011;63298;53.164;8.610;2023-03-04T07:40:59;18.60;;;2.03;;
74777;SDS011;63298;53.164;8.610;2023-03-04T07:43:25;17.02;;;2.10;;
74777;SDS011;63298;53.164;8.610;2023-03-04T07:45:50;15.15;;;3.38;;
74777;SDS011;63298;53.164;8.610;2023-03-04T07:48:15;20.30;;;1.90;;
74777;SDS011;63298;53.164;8.610;2023-03-04T07:50:41;18.08;;;2.10;;
74777;SDS011;63298;53.164;8.610;2023-03-04T07:53:06;19.37;;;2.50;;
74777;SDS011;63298;53.164;8.610;2023-03-04T07:55:31;19.17;;;2.22;;
74777;SDS011;63298;53.164;8.610;2023-03-04T07:57:57;9.85;;;2.08;;
74777;SDS011;63298;53.164;8.610;2023-03-04T08:00:22;20.60;;;2.22;;
74777;SDS011;63298;53.164;8.610;2023-03-04T08:02:48;21.17;;;2.63;;
74777;SDS011;63298;53.164;8.610;2023-03-04T08:05:13;15.90;;;2.42;;
74777;SDS011;63298;53.164;8.610;2023-03-04T08:07:38;14.38;;;2.35;;
74777;SDS011;63298;53.164;8.610;2023-03-04T08:10:04;18.33;;;2.43;;
74777;SDS011;63298;53.164;8.610;2023-03-04T08:12:30;16.70;;;2.38;;
74777;SDS011;63298;53.164;8.610;2023-03-04T08:14:55;12.65;;;2.17;;
74777;SDS011;63298;53.164;8.610;2023-03-04T08:17:20;16.45;;;2.08;;
74777;SDS011;63298;53.164;8.610;2023-03-04T08:19:45;23.13;;;3.50;;
74777;SDS011;63298;53.164;8.610;2023-03-04T08:22:11;21.13;;;2.60;;
74777;SDS011;63298;53.164;8.610;2023-03-04T08:24:36;16.20;;;2.75;;
74777;SDS011;63298;53.164;8.610;2023-03-04T08:27:02;19.80;;;2.50;;
74777;SDS011;63298;53.164;8.610;2023-03-04T08:29:27;17.15;;;2.22;;
74777;SDS011;63298;53.164;8.610;2023-03-04T08:31:53;12.75;;;1.42;;
74777;SDS011;63298;53.164;8.610;2023-03-04T08:34:19;12.77;;;1.38;;
74777;SDS011;63298;53.164;8.610;2023-03-04T08:36:46;13.32;;;1.45;;
74777;SDS011;63298;53.164;8.610;2023-03-04T08:39:12;5.93;;;1.23;;
74777;SDS011;63298;53.164;8.610;2023-03-04T08:41:39;13.68;;;1.80;;
74777;SDS011;63298;53.164;8.610;2023-03-04T08:44:04;10.38;;;1.50;;
74777;SDS011;63298;53.164;8.610;2023-03-04T08:46:30;10.57;;;1.17;;
74777;SDS011;63298;53.164;8.610;2023-03-04T08:48:56;15.17;;;1.50;;
74777;SDS011;63298;53.164;8.610;2023-03-04T08:51:21;14.38;;;1.40;;
74777;SDS011;63298;53.164;8.610;2023-03-04T08:53:47;7.82;;;1.40;;
74777;SDS011;63298;53.164;8.610;2023-03-04T08:56:12;10.27;;;1.67;;
74777;SDS011;63298;53.164;8.610;2023-03-04T08:58:37;8.93;;;1.60;;
74777;SDS011;63298;53.164;8.610;2023-03-04T09:01:03;15.38;;;1.80;;
74777;SDS011;63298;53.164;8.610;2023-03-04T09:03:31;10.15;;;1.88;;
74777;SDS011;63298;53.164;8.610;2023-03-04T09:05:56;21.63;;;1.58;;
74777;SDS011;63298;53.164;8.610;2023-03-04T09:08:22;15.20;;;2.08;;
74777;SDS011;63298;53.164;8.610;2023-03-04T09:10:50;17.45;;;1.83;;
74777;SDS011;63298;53.164;8.610;2023-03-04T09:15:43;13.20;;;2.17;;
74777;SDS011;63298;53.164;8.610;2023-03-04T09:18:10;8.63;;;1.80;;
74777;SDS011;63298;53.164;8.610;2023-03-04T09:20:36;11.77;;;2.38;;
74777;SDS011;63298;53.164;8.610;2023-03-04T09:23:01;9.20;;;1.52;;
74777;SDS011;63298;53.164;8.610;2023-03-04T09:28:52;14.63;;;2.05;;
74777;SDS011;63298;53.164;8.610;2023-03-04T09:31:19;10.35;;;1.90;;
74777;SDS011;63298;53.164;8.610;2023-03-04T09:33:44;20.90;;;2.00;;
74777;SDS011;63298;53.164;8.610;2023-03-04T09:36:10;20.23;;;1.83;;
74777;SDS011;63298;53.164;8.610;2023-03-04T09:38:37;18.23;;;2.08;;
74777;SDS011;63298;53.164;8.610;2023-03-04T09:41:03;17.40;;;3.15;;
74777;SDS011;63298;53.164;8.610;2023-03-04T09:43:31;11.70;;;2.00;;
74777;SDS011;63298;53.164;8.610;2023-03-04T09:45:58;20.15;;;1.92;;
74777;SDS011;63298;53.164;8.610;2023-03-04T09:48:28;17.42;;;2.97;;
74777;SDS011;63298;53.164;8.610;2023-03-04T09:54:08;12.80;;;2.33;;
74777;SDS011;63298;53.164;8.610;2023-03-04T09:56:39;17.67;;;2.15;;
74777;SDS011;63298;53.164;8.610;2023-03-04T09:59:24;14.65;;;2.15;;
74777;SDS011;63298;53.164;8.610;2023-03-04T10:01:57;16.08;;;2.03;;
74777;SDS011;63298;53.164;8.610;2023-03-04T10:04:28;19.67;;;2.30;;
74777;SDS011;63298;53.164;8.610;2023-03-04T10:06:58;19.15;;;2.65;;
74777;SDS011;63298;53.164;8.610;2023-03-04T10:09:27;14.75;;;2.72;;
74777;SDS011;63298;53.164;8.610;2023-03-04T10:12:08;18.13;;;3.22;;
74777;SDS011;63298;53.164;8.610;2023-03-04T10:14:39;22.40;;;3.28;;
74777;SDS011;63298;53.164;8.610;2023-03-04T10:17:16;18.92;;;2.60;;
74777;SDS011;63298;53.164;8.610;2023-03-04T10:20:04;16.83;;;2.55;;
74777;SDS011;63298;53.164;8.610;2023-03-04T10:22:46;13.77;;;1.75;;
74777;SDS011;63298;53.164;8.610;2023-03-04T10:27:49;13.77;;;1.67;;
74777;SDS011;63298;53.164;8.610;2023-03-04T10:30:31;13.25;;;1.92;;
74777;SDS011;63298;53.164;8.610;2023-03-04T10:33:16;13.88;;;2.17;;
74777;SDS011;63298;53.164;8.610;2023-03-04T10:35:48;15.55;;;2.33;;
74777;SDS011;63298;53.164;8.610;2023-03-04T10:38:20;19.67;;;2.17;;
74777;SDS011;63298;53.164;8.610;2023-03-04T10:40:46;16.85;;;2.35;;
74777;SDS011;63298;53.164;8.610;2023-03-04T10:43:19;33.20;;;3.83;;
74777;SDS011;63298;53.164;8.610;2023-03-04T10:45:45;15.82;;;2.00;;
74777;SDS011;63298;53.164;8.610;2023-03-04T10:48:18;16.40;;;2.65;;
74777;SDS011;63298;53.164;8.610;2023-03-04T10:50:48;19.52;;;2.17;;
74777;SDS011;63298;53.164;8.610;2023-03-04T10:53:32;9.00;;;2.15;;
74777;SDS011;63298;53.164;8.610;2023-03-04T10:56:01;18.88;;;2.42;;
74777;SDS011;63298;53.164;8.610;2023-03-04T10:58:27;26.92;;;3.00;;
74777;SDS011;63298;53.164;8.610;2023-03-04T11:01:03;21.48;;;2.63;;
74777;SDS011;63298;53.164;8.610;2023-03-04T11:03:30;13.93;;;2.40;;
74777;SDS011;63298;53.164;8.610;2023-03-04T11:06:10;17.75;;;2.17;;
74777;SDS011;63298;53.164;8.610;2023-03-04T11:08:41;18.38;;;2.13;;
74777;SDS011;63298;53.164;8.610;2023-03-04T11:11:23;13.18;;;1.60;;
74777;SDS011;63298;53.164;8.610;2023-03-04T11:13:55;19.98;;;2.97;;
74777;SDS011;63298;53.164;8.610;2023-03-04T11:16:25;17.23;;;2.35;;
74777;SDS011;63298;53.164;8.610;2023-03-04T11:18:54;16.83;;;2.28;;
74777;SDS011;63298;53.164;8.610;2023-03-04T11:21:28;17.90;;;2.83;;
74777;SDS011;63298;53.164;8.610;2023-03-04T11:24:18;16.40;;;2.38;;
74777;SDS011;63298;53.164;8.610;2023-03-04T11:27:02;17.83;;;2.38;;
74777;SDS011;63298;53.164;8.610;2023-03-04T11:29:44;14.77;;;2.10;;
74777;SDS011;63298;53.164;8.610;2023-03-04T11:32:23;19.25;;;2.03;;
74777;SDS011;63298;53.164;8.610;2023-03-04T11:40:50;20.95;;;2.08;;
74777;SDS011;63298;53.164;8.610;2023-03-04T11:46:04;17.92;;;2.70;;
74777;SDS011;63298;53.164;8.610;2023-03-04T11:48:47;12.90;;;1.85;;
74777;SDS011;63298;53.164;8.610;2023-03-04T11:54:00;14.25;;;2.45;;
74777;SDS011;63298;53.164;8.610;2023-03-04T11:56:35;11.60;;;2.08;;
74777;SDS011;63298;53.164;8.610;2023-03-04T12:01:54;12.00;;;2.10;;
74777;SDS011;63298;53.164;8.610;2023-03-04T12:12:45;19.95;;;2.75;;
74777;SDS011;63298;53.164;8.610;2023-03-04T12:21:16;19.90;;;2.45;;
74777;SDS011;63298;53.164;8.610;2023-03-04T12:29:57;18.98;;;2.83;;
74777;SDS011;63298;53.164;8.610;2023-03-04T12:41:10;12.90;;;1.83;;
74777;SDS011;63298;53.164;8.610;2023-03-04T12:44:21;18.35;;;2.63;;
74777;SDS011;63298;53.164;8.610;2023-03-04T12:46:52;15.15;;;2.75;;
74777;SDS011;63298;53.164;8.610;2023-03-04T12:55:13;16.88;;;2.55;;
74777;SDS011;63298;53.164;8.610;2023-03-04T13:10:20;11.80;;;2.38;;
74777;SDS011;63298;53.164;8.610;2023-03-04T13:17:48;15.60;;;2.67;;
74777;SDS011;63298;53.164;8.610;2023-03-04T13:20:31;23.73;;;2.28;;
74777;SDS011;63298;53.164;8.610;2023-03-04T13:23:00;16.08;;;2.20;;
74777;SDS011;63298;53.164;8.610;2023-03-04T13:30:40;23.88;;;3.42;;
74777;SDS011;63298;53.164;8.610;2023-03-04T13:36:03;22.50;;;2.67;;
74777;SDS011;63298;53.164;8.610;2023-03-04T13:38:59;19.70;;;2.50;;
74777;SDS011;63298;53.164;8.610;2023-03-04T13:41:31;19.45;;;2.83;;
74777;SDS011;63298;53.164;8.610;2023-03-04T13:44:31;12.25;;;2.20;;
74777;SDS011;63298;53.164;8.610;2023-03-04T13:47:20;15.15;;;2.45;;
74777;SDS011;63298;53.164;8.610;2023-03-04T13:58:39;11.52;;;1.63;;
74777;SDS011;63298;53.164;8.610;2023-03-04T14:03:58;14.80;;;2.45;;
74777;SDS011;63298;53.164;8.610;2023-03-04T14:06:26;13.90;;;2.90;;
74777;SDS011;63298;53.164;8.610;2023-03-04T14:08:57;18.98;;;2.30;;
74777;SDS011;63298;53.164;8.610;2023-03-04T14:11:35;11.10;;;1.88;;
74777;SDS011;63298;53.164;8.610;2023-03-04T14:14:09;9.50;;;1.55;;
74777;SDS011;63298;53.164;8.610;2023-03-04T14:16:38;11.40;;;2.03;;
74777;SDS011;63298;53.164;8.610;2023-03-04T14:19:14;6.70;;;2.17;;
74777;SDS011;63298;53.164;8.610;2023-03-04T14:21:47;9.60;;;1.60;;
74777;SDS011;63298;53.164;8.610;2023-03-04T14:24:15;12.25;;;2.53;;
74777;SDS011;63298;53.164;8.610;2023-03-04T14:26:43;18.20;;;2.28;;
74777;SDS011;63298;53.164;8.610;2023-03-04T14:29:22;10.48;;;1.83;;
74777;SDS011;63298;53.164;8.610;2023-03-04T14:31:50;12.05;;;1.48;;
74777;SDS011;63298;53.164;8.610;2023-03-04T14:34:24;17.48;;;1.92;;
74777;SDS011;63298;53.164;8.610;2023-03-04T14:37:23;12.45;;;1.92;;
74777;SDS011;63298;53.164;8.610;2023-03-04T14:39:55;11.48;;;1.60;;
74777;SDS011;63298;53.164;8.610;2023-03-04T14:42:24;8.77;;;1.70;;
74777;SDS011;63298;53.164;8.610;2023-03-04T14:44:59;8.50;;;1.25;;
74777;SDS011;63298;53.164;8.610;2023-03-04T14:47:34;9.27;;;1.50;;
74777;SDS011;63298;53.164;8.610;2023-03-04T14:50:12;13.80;;;1.65;;
74777;SDS011;63298;53.164;8.610;2023-03-04T14:52:44;15.52;;;1.50;;
74777;SDS011;63298;53.164;8.610;2023-03-04T14:55:19;10.52;;;1.88;;
74777;SDS011;63298;53.164;8.610;2023-03-04T14:57:48;16.52;;;2.28;;
74777;SDS011;63298;53.164;8.610;2023-03-04T15:00:31;12.82;;;2.53;;
74777;SDS011;63298;53.164;8.610;2023-03-04T15:02:59;15.80;;;2.08;;
74777;SDS011;63298;53.164;8.610;2023-03-04T15:05:32;8.60;;;1.38;;
74777;SDS011;63298;53.164;8.610;2023-03-04T15:08:00;13.40;;;1.90;;
74777;SDS011;63298;53.164;8.610;2023-03-04T15:10:33;8.23;;;1.58;;
74777;SDS011;63298;53.164;8.610;2023-03-04T15:13:02;13.40;;;2.15;;
74777;SDS011;63298;53.164;8.610;2023-03-04T15:16:03;6.13;;;1.17;;
74777;SDS011;63298;53.164;8.610;2023-03-04T15:18:26;10.32;;;1.30;;
74777;SDS011;63298;53.164;8.610;2023-03-04T15:23:51;10.98;;;1.05;;
74777;SDS011;63298;53.164;8.610;2023-03-04T15:26:16;6.88;;;1.05;;
74777;SDS011;63298;53.164;8.610;2023-03-04T15:28:42;6.70;;;1.00;;
74777;SDS011;63298;53.164;8.610;2023-03-04T15:31:15;7.88;;;1.30;;
74777;SDS011;63298;53.164;8.610;2023-03-04T15:33:43;6.72;;;1.23;;
74777;SDS011;63298;53.164;8.610;2023-03-04T15:36:13;8.20;;;1.33;;
74777;SDS011;63298;53.164;8.610;2023-03-04T15:38:42;9.45;;;1.38;;
74777;SDS011;63298;53.164;8.610;2023-03-04T15:43:38;9.38;;;1.52;;
74777;SDS011;63298;53.164;8.610;2023-03-04T15:46:04;6.50;;;1.25;;
74777;SDS011;63298;53.164;8.610;2023-03-04T15:48:29;6.15;;;1.02;;
74777;SDS011;63298;53.164;8.610;2023-03-04T15:50:57;7.38;;;1.55;;
74777;SDS011;63298;53.164;8.610;2023-03-04T15:53:26;13.75;;;2.25;;
74777;SDS011;63298;53.164;8.610;2023-03-04T15:55:56;12.20;;;1.30;;
74777;SDS011;63298;53.164;8.610;2023-03-04T15:58:22;7.28;;;1.00;;
74777;SDS011;63298;53.164;8.610;2023-03-04T16:00:47;8.80;;;1.20;;
74777;SDS011;63298;53.164;8.610;2023-03-04T16:06:16;10.52;;;1.35;;
74777;SDS011;63298;53.164;8.610;2023-03-04T16:08:43;7.82;;;1.60;;
74777;SDS011;63298;53.164;8.610;2023-03-04T16:11:10;12.35;;;1.38;;
74777;SDS011;63298;53.164;8.610;2023-03-04T16:13:40;10.40;;;2.20;;
74777;SDS011;63298;53.164;8.610;2023-03-04T16:16:08;15.80;;;2.53;;
74777;SDS011;63298;53.164;8.610;2023-03-04T16:18:34;12.10;;;2.97;;
74777;SDS011;63298;53.164;8.610;2023-03-04T16:21:00;12.25;;;2.67;;
74777;SDS011;63298;53.164;8.610;2023-03-04T16:23:26;14.50;;;3.78;;
74777;SDS011;63298;53.164;8.610;2023-03-04T16:25:53;13.80;;;2.35;;
74777;SDS011;63298;53.164;8.610;2023-03-04T16:28:20;11.18;;;1.73;;
74777;SDS011;63298;53.164;8.610;2023-03-04T16:30:46;15.68;;;2.22;;
74777;SDS011;63298;53.164;8.610;2023-03-04T16:33:11;13.23;;;2.75;;
74777;SDS011;63298;53.164;8.610;2023-03-04T16:35:37;8.73;;;1.90;;
74777;SDS011;63298;53.164;8.610;2023-03-04T16:38:04;13.07;;;1.83;;
74777;SDS011;63298;53.164;8.610;2023-03-04T16:40:36;10.93;;;2.50;;
74777;SDS011;63298;53.164;8.610;2023-03-04T16:43:01;8.73;;;2.05;;
74777;SDS011;63298;53.164;8.610;2023-03-04T16:45:27;22.88;;;2.30;;
74777;SDS011;63298;53.164;8.610;2023-03-04T16:47:52;11.52;;;2.22;;
74777;SDS011;63298;53.164;8.610;2023-03-04T16:50:19;20.52;;;2.35;;
74777;SDS011;63298;53.164;8.610;2023-03-04T16:52:47;12.82;;;1.80;;